sensor_id;sensor_type;location;lat;lon;timestamp;P1;durP1;ratioP1;P2;durP2;ratioP2
71164;SDS011;58859;55.132;-1.586;2024-03-22T00:01:52;5.63;;;1.42;;
71164;SDS011;58859;55.132;-1.586;2024-03-22T00:04:19;9.65;;;2.03;;
71164;SDS011;58859;55.132;-1.586;2024-03-22T00:06:45;9.43;;;1.60;;
71164;SDS011;58859;55.132;-1.586;2024-03-22T00:09:11;5.82;;;0.95;;
71164;SDS011;58859;55.132;-1.586;2024-03-22T00:11:38;8.97;;;1.90;;
71164;SDS011;58859;55.132;-1.586;2024-03-22T00:14:04;7.78;;;1.98;;
71164;SDS011;58859;55.132;-1.586;2024-03-22T00:16:30;11.13;;;1.80;;
71164;SDS011;58859;55.132;-1.586;2024-03-22T00:18:55;6.53;;;1.70;;
71164;SDS011;58859;55.132;-1.586;2024-03-22T00:21:21;11.65;;;2.13;;
71164;SDS011;58859;55.132;-1.586;2024-03-22T00:23:47;9.07;;;1.83;;
71164;SDS011;58859;55.132;-1.586;2024-03-22T00:26:12;10.73;;;1.90;;
71164;SDS011;58859;55.132;-1.586;2024-03-22T00:28:38;12.30;;;2.50;;
71164;SDS011;58859;55.132;-1.586;2024-03-22T00:31:03;5.67;;;1.63;;
71164;SDS011;58859;55.132;-1.586;2024-03-22T00:33:29;9.00;;;1.97;;
71164;SDS011;58859;55.132;-1.586;2024-03-22T00:35:54;12.93;;;2.25;;
71164;SDS011;58859;55.132;-1.586;2024-03-22T00:38:20;13.47;;;2.27;;
71164;SDS011;58859;55.132;-1.586;2024-03-22T00:40:45;12.50;;;2.07;;
71164;SDS011;58859;55.132;-1.586;2024-03-22T00:43:10;13.20;;;2.53;;
71164;SDS011;58859;55.132;-1.586;2024-03-22T00:45:36;16.07;;;2.67;;
71164;SDS011;58859;55.132;-1.586;2024-03-22T00:48:01;15.85;;;2.55;;
71164;SDS011;58859;55.132;-1.586;2024-03-22T00:50:27;11.93;;;2.97;;
71164;SDS011;58859;55.132;-1.586;2024-03-22T00:52:52;19.10;;;3.80;;
71164;SDS011;58859;55.132;-1.586;2024-03-22T00:55:20;12.43;;;2.70;;
71164;SDS011;58859;55.132;-1.586;2024-03-22T00:57:46;16.77;;;3.90;;
71164;SDS011;58859;55.132;-1.586;2024-03-22T01:00:11;14.87;;;3.07;;
71164;SDS011;58859;55.132;-1.586;2024-03-22T01:02:38;9.15;;;2.60;;
71164;SDS011;58859;55.132;-1.586;2024-03-22T01:05:03;11.93;;;3.07;;
71164;SDS011;58859;55.132;-1.586;2024-03-22T01:07:29;8.82;;;1.98;;
71164;SDS011;58859;55.132;-1.586;2024-03-22T01:09:54;11.43;;;2.50;;
71164;SDS011;58859;55.132;-1.586;2024-03-22T01:12:20;20.60;;;3.53;;
71164;SDS011;58859;55.132;-1.586;2024-03-22T01:14:45;14.80;;;2.60;;
71164;SDS011;58859;55.132;-1.586;2024-03-22T01:17:10;14.38;;;2.70;;
71164;SDS011;58859;55.132;-1.586;2024-03-22T01:19:36;16.92;;;2.97;;
71164;SDS011;58859;55.132;-1.586;2024-03-22T01:22:01;14.87;;;3.07;;
71164;SDS011;58859;55.132;-1.586;2024-03-22T01:24:26;21.17;;;3.70;;
71164;SDS011;58859;55.132;-1.586;2024-03-22T01:26:52;18.83;;;3.20;;
71164;SDS011;58859;55.132;-1.586;2024-03-22T01:29:18;14.55;;;3.65;;
71164;SDS011;58859;55.132;-1.586;2024-03-22T01:31:43;19.83;;;3.13;;
71164;SDS011;58859;55.132;-1.586;2024-03-22T01:34:09;12.10;;;2.60;;
71164;SDS011;58859;55.132;-1.586;2024-03-22T01:36:34;20.47;;;4.17;;
71164;SDS011;58859;55.132;-1.586;2024-03-22T01:38:59;20.20;;;3.70;;
71164;SDS011;58859;55.132;-1.586;2024-03-22T01:41:25;14.20;;;2.47;;
71164;SDS011;58859;55.132;-1.586;2024-03-22T01:43:50;22.33;;;2.97;;
71164;SDS011;58859;55.132;-1.586;2024-03-22T01:46:16;18.93;;;2.77;;
71164;SDS011;58859;55.132;-1.586;2024-03-22T01:48:41;14.93;;;2.53;;
71164;SDS011;58859;55.132;-1.586;2024-03-22T01:51:06;19.58;;;4.03;;
71164;SDS011;58859;55.132;-1.586;2024-03-22T01:53:34;18.60;;;2.83;;
71164;SDS011;58859;55.132;-1.586;2024-03-22T01:56:00;15.40;;;2.55;;
71164;SDS011;58859;55.132;-1.586;2024-03-22T01:58:26;19.35;;;3.83;;
71164;SDS011;58859;55.132;-1.586;2024-03-22T02:00:52;16.70;;;2.60;;
71164;SDS011;58859;55.132;-1.586;2024-03-22T02:03:17;9.93;;;2.57;;
71164;SDS011;58859;55.132;-1.586;2024-03-22T02:05:42;17.83;;;3.25;;
71164;SDS011;58859;55.132;-1.586;2024-03-22T02:08:08;18.73;;;3.90;;
71164;SDS011;58859;55.132;-1.586;2024-03-22T02:10:33;22.80;;;3.23;;
71164;SDS011;58859;55.132;-1.586;2024-03-22T02:12:59;24.43;;;3.87;;
71164;SDS011;58859;55.132;-1.586;2024-03-22T02:15:24;13.90;;;2.60;;
71164;SDS011;58859;55.132;-1.586;2024-03-22T02:17:50;14.05;;;3.05;;
71164;SDS011;58859;55.132;-1.586;2024-03-22T02:20:15;17.10;;;3.40;;
71164;SDS011;58859;55.132;-1.586;2024-03-22T02:22:40;15.17;;;3.07;;
71164;SDS011;58859;55.132;-1.586;2024-03-22T02:25:06;19.50;;;3.10;;
71164;SDS011;58859;55.132;-1.586;2024-03-22T02:27:33;22.38;;;3.55;;
71164;SDS011;58859;55.132;-1.586;2024-03-22T02:29:59;22.95;;;3.85;;
71164;SDS011;58859;55.132;-1.586;2024-03-22T02:32:24;23.07;;;4.43;;
71164;SDS011;58859;55.132;-1.586;2024-03-22T02:34:49;18.40;;;2.90;;
71164;SDS011;58859;55.132;-1.586;2024-03-22T02:37:15;21.00;;;3.57;;
71164;SDS011;58859;55.132;-1.586;2024-03-22T02:39:40;18.48;;;3.13;;
71164;SDS011;58859;55.132;-1.586;2024-03-22T02:42:06;26.33;;;4.57;;
71164;SDS011;58859;55.132;-1.586;2024-03-22T02:44:31;23.40;;;3.33;;
71164;SDS011;58859;55.132;-1.586;2024-03-22T02:46:57;26.07;;;4.10;;
71164;SDS011;58859;55.132;-1.586;2024-03-22T02:49:22;23.60;;;4.03;;
71164;SDS011;58859;55.132;-1.586;2024-03-22T02:51:47;19.67;;;3.08;;
71164;SDS011;58859;55.132;-1.586;2024-03-22T02:54:13;23.23;;;3.73;;
71164;SDS011;58859;55.132;-1.586;2024-03-22T02:56:39;18.63;;;3.13;;
71164;SDS011;58859;55.132;-1.586;2024-03-22T02:59:04;24.07;;;3.73;;
71164;SDS011;58859;55.132;-1.586;2024-03-22T03:01:30;29.67;;;4.50;;
71164;SDS011;58859;55.132;-1.586;2024-03-22T03:03:55;18.73;;;3.87;;
71164;SDS011;58859;55.132;-1.586;2024-03-22T03:06:21;15.93;;;3.22;;
71164;SDS011;58859;55.132;-1.586;2024-03-22T03:08:46;23.00;;;4.13;;
71164;SDS011;58859;55.132;-1.586;2024-03-22T03:11:13;24.93;;;3.37;;
71164;SDS011;58859;55.132;-1.586;2024-03-22T03:13:39;20.08;;;3.15;;
71164;SDS011;58859;55.132;-1.586;2024-03-22T03:16:04;19.27;;;3.33;;
71164;SDS011;58859;55.132;-1.586;2024-03-22T03:18:30;19.50;;;3.30;;
71164;SDS011;58859;55.132;-1.586;2024-03-22T03:20:55;23.13;;;4.43;;
71164;SDS011;58859;55.132;-1.586;2024-03-22T03:23:21;15.55;;;3.28;;
71164;SDS011;58859;55.132;-1.586;2024-03-22T03:25:46;17.07;;;3.77;;
71164;SDS011;58859;55.132;-1.586;2024-03-22T03:28:13;17.77;;;2.80;;
71164;SDS011;58859;55.132;-1.586;2024-03-22T03:30:39;15.02;;;2.42;;
71164;SDS011;58859;55.132;-1.586;2024-03-22T03:33:04;19.80;;;3.70;;
71164;SDS011;58859;55.132;-1.586;2024-03-22T03:35:30;16.50;;;3.90;;
71164;SDS011;58859;55.132;-1.586;2024-03-22T03:37:55;17.33;;;2.90;;
71164;SDS011;58859;55.132;-1.586;2024-03-22T03:40:21;18.50;;;3.47;;
71164;SDS011;58859;55.132;-1.586;2024-03-22T03:42:49;19.73;;;3.90;;
71164;SDS011;58859;55.132;-1.586;2024-03-22T03:45:15;16.03;;;2.90;;
71164;SDS011;58859;55.132;-1.586;2024-03-22T03:47:40;18.92;;;3.10;;
71164;SDS011;58859;55.132;-1.586;2024-03-22T03:50:05;12.90;;;2.05;;
71164;SDS011;58859;55.132;-1.586;2024-03-22T03:52:31;18.80;;;3.10;;
71164;SDS011;58859;55.132;-1.586;2024-03-22T03:54:56;19.00;;;2.60;;
71164;SDS011;58859;55.132;-1.586;2024-03-22T03:57:22;18.03;;;3.43;;
71164;SDS011;58859;55.132;-1.586;2024-03-22T03:59:47;17.27;;;2.73;;
71164;SDS011;58859;55.132;-1.586;2024-03-22T04:02:13;20.90;;;3.17;;
71164;SDS011;58859;55.132;-1.586;2024-03-22T04:04:38;13.03;;;2.47;;
71164;SDS011;58859;55.132;-1.586;2024-03-22T04:07:04;16.25;;;3.15;;
71164;SDS011;58859;55.132;-1.586;2024-03-22T04:09:29;24.55;;;3.55;;
71164;SDS011;58859;55.132;-1.586;2024-03-22T04:11:55;21.00;;;3.23;;
71164;SDS011;58859;55.132;-1.586;2024-03-22T04:14:23;16.50;;;2.95;;
71164;SDS011;58859;55.132;-1.586;2024-03-22T04:16:49;18.63;;;2.90;;
71164;SDS011;58859;55.132;-1.586;2024-03-22T04:19:15;26.30;;;3.53;;
71164;SDS011;58859;55.132;-1.586;2024-03-22T04:21:40;15.97;;;3.00;;
71164;SDS011;58859;55.132;-1.586;2024-03-22T04:24:05;17.30;;;2.37;;
71164;SDS011;58859;55.132;-1.586;2024-03-22T04:26:31;17.60;;;3.10;;
71164;SDS011;58859;55.132;-1.586;2024-03-22T04:28:57;18.67;;;2.92;;
71164;SDS011;58859;55.132;-1.586;2024-03-22T04:31:22;15.30;;;3.00;;
71164;SDS011;58859;55.132;-1.586;2024-03-22T04:33:47;14.50;;;2.27;;
71164;SDS011;58859;55.132;-1.586;2024-03-22T04:36:13;14.20;;;2.57;;
71164;SDS011;58859;55.132;-1.586;2024-03-22T04:38:38;16.03;;;2.50;;
71164;SDS011;58859;55.132;-1.586;2024-03-22T04:41:04;15.02;;;2.63;;
71164;SDS011;58859;55.132;-1.586;2024-03-22T04:43:29;14.73;;;2.30;;
71164;SDS011;58859;55.132;-1.586;2024-03-22T04:45:54;16.80;;;1.93;;
71164;SDS011;58859;55.132;-1.586;2024-03-22T04:48:20;13.70;;;2.27;;
71164;SDS011;58859;55.132;-1.586;2024-03-22T04:50:47;19.98;;;3.10;;
71164;SDS011;58859;55.132;-1.586;2024-03-22T04:53:15;9.25;;;2.33;;
71164;SDS011;58859;55.132;-1.586;2024-03-22T04:55:47;16.77;;;2.88;;
71164;SDS011;58859;55.132;-1.586;2024-03-22T04:58:13;10.45;;;2.30;;
71164;SDS011;58859;55.132;-1.586;2024-03-22T05:00:40;12.80;;;1.77;;
71164;SDS011;58859;55.132;-1.586;2024-03-22T05:03:06;12.63;;;2.53;;
71164;SDS011;58859;55.132;-1.586;2024-03-22T05:05:31;14.00;;;2.43;;
71164;SDS011;58859;55.132;-1.586;2024-03-22T05:07:57;13.85;;;2.10;;
71164;SDS011;58859;55.132;-1.586;2024-03-22T05:10:23;15.70;;;2.67;;
71164;SDS011;58859;55.132;-1.586;2024-03-22T05:12:48;11.47;;;1.77;;
71164;SDS011;58859;55.132;-1.586;2024-03-22T05:15:13;8.68;;;1.55;;
71164;SDS011;58859;55.132;-1.586;2024-03-22T05:17:39;13.17;;;2.43;;
71164;SDS011;58859;55.132;-1.586;2024-03-22T05:20:06;9.23;;;1.98;;
71164;SDS011;58859;55.132;-1.586;2024-03-22T05:22:36;12.07;;;1.87;;
71164;SDS011;58859;55.132;-1.586;2024-03-22T05:25:04;11.48;;;2.05;;
71164;SDS011;58859;55.132;-1.586;2024-03-22T05:27:30;10.90;;;2.42;;
71164;SDS011;58859;55.132;-1.586;2024-03-22T05:29:57;14.45;;;2.28;;
71164;SDS011;58859;55.132;-1.586;2024-03-22T05:32:23;8.40;;;1.73;;
71164;SDS011;58859;55.132;-1.586;2024-03-22T05:34:48;6.40;;;1.50;;
71164;SDS011;58859;55.132;-1.586;2024-03-22T05:37:13;12.40;;;2.27;;
71164;SDS011;58859;55.132;-1.586;2024-03-22T05:39:39;12.87;;;1.80;;
71164;SDS011;58859;55.132;-1.586;2024-03-22T05:42:07;11.95;;;1.55;;
71164;SDS011;58859;55.132;-1.586;2024-03-22T05:44:32;7.25;;;2.03;;
71164;SDS011;58859;55.132;-1.586;2024-03-22T05:46:58;14.00;;;2.47;;
71164;SDS011;58859;55.132;-1.586;2024-03-22T05:49:23;11.93;;;1.30;;
71164;SDS011;58859;55.132;-1.586;2024-03-22T05:51:49;8.67;;;1.40;;
71164;SDS011;58859;55.132;-1.586;2024-03-22T05:54:14;14.47;;;2.20;;
71164;SDS011;58859;55.132;-1.586;2024-03-22T05:56:40;9.10;;;1.85;;
71164;SDS011;58859;55.132;-1.586;2024-03-22T05:59:05;10.03;;;2.43;;
71164;SDS011;58859;55.132;-1.586;2024-03-22T06:01:31;13.73;;;2.23;;
71164;SDS011;58859;55.132;-1.586;2024-03-22T06:03:57;19.88;;;2.67;;
71164;SDS011;58859;55.132;-1.586;2024-03-22T06:06:22;12.47;;;2.40;;
71164;SDS011;58859;55.132;-1.586;2024-03-22T06:08:50;17.77;;;2.70;;
71164;SDS011;58859;55.132;-1.586;2024-03-22T06:11:17;14.27;;;2.47;;
71164;SDS011;58859;55.132;-1.586;2024-03-22T06:13:43;15.57;;;2.87;;
71164;SDS011;58859;55.132;-1.586;2024-03-22T06:16:09;10.43;;;1.70;;
71164;SDS011;58859;55.132;-1.586;2024-03-22T06:18:34;10.20;;;2.13;;
71164;SDS011;58859;55.132;-1.586;2024-03-22T06:21:00;16.00;;;2.30;;
71164;SDS011;58859;55.132;-1.586;2024-03-22T06:23:25;9.88;;;2.15;;
71164;SDS011;58859;55.132;-1.586;2024-03-22T06:25:51;15.13;;;2.50;;
71164;SDS011;58859;55.132;-1.586;2024-03-22T06:28:17;12.67;;;2.63;;
71164;SDS011;58859;55.132;-1.586;2024-03-22T06:30:42;8.65;;;1.67;;
71164;SDS011;58859;55.132;-1.586;2024-03-22T06:33:08;17.70;;;2.40;;
71164;SDS011;58859;55.132;-1.586;2024-03-22T06:35:33;12.60;;;2.63;;
71164;SDS011;58859;55.132;-1.586;2024-03-22T06:37:59;10.38;;;2.03;;
71164;SDS011;58859;55.132;-1.586;2024-03-22T06:40:27;9.60;;;2.67;;
71164;SDS011;58859;55.132;-1.586;2024-03-22T06:42:53;10.77;;;2.43;;
71164;SDS011;58859;55.132;-1.586;2024-03-22T06:45:18;14.15;;;2.25;;
71164;SDS011;58859;55.132;-1.586;2024-03-22T06:47:43;9.73;;;2.07;;
71164;SDS011;58859;55.132;-1.586;2024-03-22T06:50:09;12.13;;;1.23;;
71164;SDS011;58859;55.132;-1.586;2024-03-22T06:52:34;8.55;;;1.67;;
71164;SDS011;58859;55.132;-1.586;2024-03-22T06:55:00;8.85;;;1.98;;
71164;SDS011;58859;55.132;-1.586;2024-03-22T06:57:25;12.57;;;2.10;;
71164;SDS011;58859;55.132;-1.586;2024-03-22T06:59:51;13.00;;;2.37;;
71164;SDS011;58859;55.132;-1.586;2024-03-22T07:02:17;16.63;;;2.22;;
71164;SDS011;58859;55.132;-1.586;2024-03-22T07:04:43;12.00;;;2.20;;
71164;SDS011;58859;55.132;-1.586;2024-03-22T07:07:09;10.75;;;2.53;;
71164;SDS011;58859;55.132;-1.586;2024-03-22T07:09:34;11.73;;;1.93;;
71164;SDS011;58859;55.132;-1.586;2024-03-22T07:12:01;12.50;;;2.00;;
71164;SDS011;58859;55.132;-1.586;2024-03-22T07:14:26;7.22;;;1.50;;
71164;SDS011;58859;55.132;-1.586;2024-03-22T07:16:52;9.77;;;2.37;;
71164;SDS011;58859;55.132;-1.586;2024-03-22T07:19:20;10.32;;;1.50;;
71164;SDS011;58859;55.132;-1.586;2024-03-22T07:21:46;5.57;;;1.80;;
71164;SDS011;58859;55.132;-1.586;2024-03-22T07:24:12;6.93;;;2.40;;
71164;SDS011;58859;55.132;-1.586;2024-03-22T07:26:38;12.50;;;2.00;;
71164;SDS011;58859;55.132;-1.586;2024-03-22T07:29:04;12.87;;;1.97;;
71164;SDS011;58859;55.132;-1.586;2024-03-22T07:31:30;13.20;;;2.75;;
71164;SDS011;58859;55.132;-1.586;2024-03-22T07:33:55;11.23;;;1.70;;
71164;SDS011;58859;55.132;-1.586;2024-03-22T07:36:21;10.82;;;2.35;;
71164;SDS011;58859;55.132;-1.586;2024-03-22T07:38:46;12.23;;;1.53;;
71164;SDS011;58859;55.132;-1.586;2024-03-22T07:41:14;11.43;;;1.98;;
71164;SDS011;58859;55.132;-1.586;2024-03-22T07:43:39;7.23;;;1.63;;
71164;SDS011;58859;55.132;-1.586;2024-03-22T07:46:05;7.32;;;1.52;;
71164;SDS011;58859;55.132;-1.586;2024-03-22T07:48:30;9.70;;;1.60;;
71164;SDS011;58859;55.132;-1.586;2024-03-22T07:50:59;9.20;;;1.63;;
71164;SDS011;58859;55.132;-1.586;2024-03-22T07:53:25;6.25;;;1.80;;
71164;SDS011;58859;55.132;-1.586;2024-03-22T07:55:51;12.35;;;2.28;;
71164;SDS011;58859;55.132;-1.586;2024-03-22T07:58:16;8.83;;;1.30;;
71164;SDS011;58859;55.132;-1.586;2024-03-22T08:00:42;6.90;;;1.50;;
71164;SDS011;58859;55.132;-1.586;2024-03-22T08:03:07;10.47;;;1.70;;
71164;SDS011;58859;55.132;-1.586;2024-03-22T08:05:38;10.32;;;1.48;;
71164;SDS011;58859;55.132;-1.586;2024-03-22T08:08:04;8.00;;;1.20;;
71164;SDS011;58859;55.132;-1.586;2024-03-22T08:10:30;8.75;;;1.83;;
71164;SDS011;58859;55.132;-1.586;2024-03-22T08:12:55;5.93;;;1.30;;
71164;SDS011;58859;55.132;-1.586;2024-03-22T08:15:21;9.67;;;1.60;;
71164;SDS011;58859;55.132;-1.586;2024-03-22T08:17:46;5.00;;;1.43;;
71164;SDS011;58859;55.132;-1.586;2024-03-22T08:20:11;9.40;;;1.40;;
71164;SDS011;58859;55.132;-1.586;2024-03-22T08:22:37;4.53;;;1.20;;
71164;SDS011;58859;55.132;-1.586;2024-03-22T08:25:03;7.80;;;1.37;;
71164;SDS011;58859;55.132;-1.586;2024-03-22T08:27:29;7.47;;;1.02;;
71164;SDS011;58859;55.132;-1.586;2024-03-22T08:29:54;10.32;;;1.77;;
71164;SDS011;58859;55.132;-1.586;2024-03-22T08:32:20;6.77;;;1.23;;
71164;SDS011;58859;55.132;-1.586;2024-03-22T08:34:45;10.30;;;1.83;;
71164;SDS011;58859;55.132;-1.586;2024-03-22T08:37:11;5.90;;;1.60;;
71164;SDS011;58859;55.132;-1.586;2024-03-22T08:39:37;7.10;;;2.23;;
71164;SDS011;58859;55.132;-1.586;2024-03-22T08:42:02;11.13;;;2.00;;
71164;SDS011;58859;55.132;-1.586;2024-03-22T08:44:30;6.40;;;1.30;;
71164;SDS011;58859;55.132;-1.586;2024-03-22T08:46:55;8.70;;;1.90;;
71164;SDS011;58859;55.132;-1.586;2024-03-22T08:49:21;6.63;;;0.97;;
71164;SDS011;58859;55.132;-1.586;2024-03-22T08:51:46;6.78;;;1.33;;
71164;SDS011;58859;55.132;-1.586;2024-03-22T08:54:13;2.73;;;0.70;;
71164;SDS011;58859;55.132;-1.586;2024-03-22T08:56:38;6.45;;;1.17;;
71164;SDS011;58859;55.132;-1.586;2024-03-22T08:59:04;4.63;;;1.37;;
71164;SDS011;58859;55.132;-1.586;2024-03-22T09:01:30;4.50;;;0.75;;
71164;SDS011;58859;55.132;-1.586;2024-03-22T09:03:56;4.53;;;1.03;;
71164;SDS011;58859;55.132;-1.586;2024-03-22T09:06:21;5.47;;;0.97;;
71164;SDS011;58859;55.132;-1.586;2024-03-22T09:08:47;4.43;;;0.80;;
71164;SDS011;58859;55.132;-1.586;2024-03-22T09:11:12;4.53;;;0.75;;
71164;SDS011;58859;55.132;-1.586;2024-03-22T09:13:38;3.60;;;0.77;;
71164;SDS011;58859;55.132;-1.586;2024-03-22T09:16:03;4.07;;;0.70;;
71164;SDS011;58859;55.132;-1.586;2024-03-22T09:18:29;1.40;;;0.50;;
71164;SDS011;58859;55.132;-1.586;2024-03-22T09:20:55;4.40;;;0.60;;
71164;SDS011;58859;55.132;-1.586;2024-03-22T09:23:21;3.30;;;0.80;;
71164;SDS011;58859;55.132;-1.586;2024-03-22T09:25:46;2.10;;;0.60;;
71164;SDS011;58859;55.132;-1.586;2024-03-22T09:28:15;4.55;;;0.80;;
71164;SDS011;58859;55.132;-1.586;2024-03-22T09:30:40;3.70;;;0.77;;
71164;SDS011;58859;55.132;-1.586;2024-03-22T09:33:08;2.58;;;0.60;;
71164;SDS011;58859;55.132;-1.586;2024-03-22T09:35:34;2.42;;;0.60;;
71164;SDS011;58859;55.132;-1.586;2024-03-22T09:38:00;3.33;;;1.00;;
71164;SDS011;58859;55.132;-1.586;2024-03-22T09:40:25;5.35;;;1.38;;
71164;SDS011;58859;55.132;-1.586;2024-03-22T09:42:51;5.40;;;1.00;;
71164;SDS011;58859;55.132;-1.586;2024-03-22T09:45:18;4.15;;;0.45;;
71164;SDS011;58859;55.132;-1.586;2024-03-22T09:47:45;5.93;;;1.37;;
71164;SDS011;58859;55.132;-1.586;2024-03-22T09:50:11;7.03;;;1.25;;
71164;SDS011;58859;55.132;-1.586;2024-03-22T09:52:37;5.97;;;1.00;;
71164;SDS011;58859;55.132;-1.586;2024-03-22T09:55:07;9.15;;;1.02;;
71164;SDS011;58859;55.132;-1.586;2024-03-22T09:57:34;5.55;;;1.38;;
71164;SDS011;58859;55.132;-1.586;2024-03-22T10:00:02;2.35;;;0.70;;
71164;SDS011;58859;55.132;-1.586;2024-03-22T10:02:28;8.00;;;1.20;;
71164;SDS011;58859;55.132;-1.586;2024-03-22T10:04:56;7.25;;;1.15;;
71164;SDS011;58859;55.132;-1.586;2024-03-22T10:07:22;4.73;;;0.60;;
71164;SDS011;58859;55.132;-1.586;2024-03-22T10:09:47;7.75;;;0.95;;
71164;SDS011;58859;55.132;-1.586;2024-03-22T10:12:13;4.50;;;1.07;;
71164;SDS011;58859;55.132;-1.586;2024-03-22T10:14:42;4.00;;;0.95;;
71164;SDS011;58859;55.132;-1.586;2024-03-22T10:17:11;6.20;;;1.20;;
71164;SDS011;58859;55.132;-1.586;2024-03-22T10:19:36;5.93;;;0.77;;
71164;SDS011;58859;55.132;-1.586;2024-03-22T10:22:02;5.40;;;1.00;;
71164;SDS011;58859;55.132;-1.586;2024-03-22T10:24:29;7.72;;;1.23;;
71164;SDS011;58859;55.132;-1.586;2024-03-22T10:26:55;4.37;;;0.60;;
71164;SDS011;58859;55.132;-1.586;2024-03-22T10:29:21;3.55;;;0.80;;
71164;SDS011;58859;55.132;-1.586;2024-03-22T10:31:50;4.57;;;1.10;;
71164;SDS011;58859;55.132;-1.586;2024-03-22T10:34:17;3.83;;;0.60;;
71164;SDS011;58859;55.132;-1.586;2024-03-22T10:36:43;12.18;;;1.60;;
71164;SDS011;58859;55.132;-1.586;2024-03-22T10:39:09;7.00;;;1.13;;
71164;SDS011;58859;55.132;-1.586;2024-03-22T10:41:37;8.45;;;1.30;;
71164;SDS011;58859;55.132;-1.586;2024-03-22T10:44:03;6.27;;;1.13;;
71164;SDS011;58859;55.132;-1.586;2024-03-22T10:46:30;3.85;;;1.10;;
71164;SDS011;58859;55.132;-1.586;2024-03-22T10:48:56;7.85;;;0.82;;
71164;SDS011;58859;55.132;-1.586;2024-03-22T10:51:23;4.03;;;0.98;;
71164;SDS011;58859;55.132;-1.586;2024-03-22T10:53:50;6.90;;;1.15;;
71164;SDS011;58859;55.132;-1.586;2024-03-22T10:56:19;5.60;;;1.27;;
71164;SDS011;58859;55.132;-1.586;2024-03-22T10:58:47;7.07;;;1.27;;
71164;SDS011;58859;55.132;-1.586;2024-03-22T11:01:24;8.27;;;1.27;;
71164;SDS011;58859;55.132;-1.586;2024-03-22T11:03:51;7.25;;;1.25;;
71164;SDS011;58859;55.132;-1.586;2024-03-22T11:06:19;4.43;;;0.97;;
71164;SDS011;58859;55.132;-1.586;2024-03-22T11:08:49;13.35;;;1.60;;
71164;SDS011;58859;55.132;-1.586;2024-03-22T11:11:17;6.80;;;2.15;;
71164;SDS011;58859;55.132;-1.586;2024-03-22T11:13:46;6.13;;;0.93;;
71164;SDS011;58859;55.132;-1.586;2024-03-22T11:16:15;8.35;;;1.80;;
71164;SDS011;58859;55.132;-1.586;2024-03-22T11:18:41;7.90;;;1.17;;
71164;SDS011;58859;55.132;-1.586;2024-03-22T11:21:07;7.60;;;1.45;;
71164;SDS011;58859;55.132;-1.586;2024-03-22T11:23:34;7.05;;;1.25;;
71164;SDS011;58859;55.132;-1.586;2024-03-22T11:26:03;4.78;;;0.65;;
71164;SDS011;58859;55.132;-1.586;2024-03-22T11:28:29;5.57;;;1.10;;
71164;SDS011;58859;55.132;-1.586;2024-03-22T11:30:55;2.67;;;0.80;;
71164;SDS011;58859;55.132;-1.586;2024-03-22T11:33:21;6.65;;;1.83;;
71164;SDS011;58859;55.132;-1.586;2024-03-22T11:35:47;8.02;;;1.23;;
71164;SDS011;58859;55.132;-1.586;2024-03-22T11:38:13;4.72;;;1.02;;
71164;SDS011;58859;55.132;-1.586;2024-03-22T11:40:39;5.68;;;1.10;;
71164;SDS011;58859;55.132;-1.586;2024-03-22T11:43:05;6.80;;;0.73;;
71164;SDS011;58859;55.132;-1.586;2024-03-22T11:45:31;5.40;;;0.85;;
71164;SDS011;58859;55.132;-1.586;2024-03-22T11:48:01;6.00;;;0.80;;
71164;SDS011;58859;55.132;-1.586;2024-03-22T11:50:27;3.33;;;1.17;;
71164;SDS011;58859;55.132;-1.586;2024-03-22T11:52:53;7.18;;;1.30;;
71164;SDS011;58859;55.132;-1.586;2024-03-22T11:55:18;8.17;;;1.27;;
71164;SDS011;58859;55.132;-1.586;2024-03-22T11:57:49;5.70;;;0.90;;
71164;SDS011;58859;55.132;-1.586;2024-03-22T12:00:18;6.57;;;1.52;;
71164;SDS011;58859;55.132;-1.586;2024-03-22T12:02:44;6.10;;;1.33;;
71164;SDS011;58859;55.132;-1.586;2024-03-22T12:05:11;6.07;;;1.73;;
71164;SDS011;58859;55.132;-1.586;2024-03-22T12:07:36;5.10;;;1.00;;
71164;SDS011;58859;55.132;-1.586;2024-03-22T12:10:02;9.10;;;1.38;;
71164;SDS011;58859;55.132;-1.586;2024-03-22T12:12:29;6.40;;;1.00;;
71164;SDS011;58859;55.132;-1.586;2024-03-22T12:14:55;3.10;;;0.77;;
71164;SDS011;58859;55.132;-1.586;2024-03-22T12:17:20;4.38;;;0.60;;
71164;SDS011;58859;55.132;-1.586;2024-03-22T12:19:46;5.57;;;1.27;;
71164;SDS011;58859;55.132;-1.586;2024-03-22T12:22:12;5.15;;;0.90;;
71164;SDS011;58859;55.132;-1.586;2024-03-22T12:24:38;5.10;;;0.73;;
71164;SDS011;58859;55.132;-1.586;2024-03-22T12:27:03;5.40;;;1.25;;
71164;SDS011;58859;55.132;-1.586;2024-03-22T12:29:32;4.80;;;1.07;;
71164;SDS011;58859;55.132;-1.586;2024-03-22T12:31:58;4.25;;;1.15;;
71164;SDS011;58859;55.132;-1.586;2024-03-22T12:34:26;7.35;;;1.55;;
71164;SDS011;58859;55.132;-1.586;2024-03-22T12:36:52;3.45;;;0.90;;
71164;SDS011;58859;55.132;-1.586;2024-03-22T12:39:18;2.30;;;0.53;;
71164;SDS011;58859;55.132;-1.586;2024-03-22T12:41:43;6.00;;;1.10;;
71164;SDS011;58859;55.132;-1.586;2024-03-22T12:44:08;5.97;;;0.90;;
71164;SDS011;58859;55.132;-1.586;2024-03-22T12:46:34;5.72;;;1.20;;
71164;SDS011;58859;55.132;-1.586;2024-03-22T12:48:59;2.57;;;0.63;;
71164;SDS011;58859;55.132;-1.586;2024-03-22T12:51:25;6.07;;;0.90;;
71164;SDS011;58859;55.132;-1.586;2024-03-22T12:53:50;3.90;;;0.95;;
71164;SDS011;58859;55.132;-1.586;2024-03-22T12:56:16;3.63;;;0.80;;
71164;SDS011;58859;55.132;-1.586;2024-03-22T12:58:41;2.90;;;0.70;;
71164;SDS011;58859;55.132;-1.586;2024-03-22T13:01:07;3.90;;;0.60;;
71164;SDS011;58859;55.132;-1.586;2024-03-22T13:03:35;6.25;;;1.30;;
71164;SDS011;58859;55.132;-1.586;2024-03-22T13:06:01;2.17;;;0.68;;
71164;SDS011;58859;55.132;-1.586;2024-03-22T13:08:27;5.00;;;0.50;;
71164;SDS011;58859;55.132;-1.586;2024-03-22T13:10:52;3.57;;;1.00;;
71164;SDS011;58859;55.132;-1.586;2024-03-22T13:13:17;1.60;;;0.60;;
71164;SDS011;58859;55.132;-1.586;2024-03-22T13:15:43;4.63;;;0.65;;
71164;SDS011;58859;55.132;-1.586;2024-03-22T13:18:09;3.40;;;0.80;;
71164;SDS011;58859;55.132;-1.586;2024-03-22T13:20:35;2.85;;;0.70;;
71164;SDS011;58859;55.132;-1.586;2024-03-22T13:23:01;2.75;;;1.00;;
71164;SDS011;58859;55.132;-1.586;2024-03-22T13:25:26;4.95;;;0.98;;
71164;SDS011;58859;55.132;-1.586;2024-03-22T13:27:52;2.10;;;0.30;;
71164;SDS011;58859;55.132;-1.586;2024-03-22T13:30:17;0.32;;;0.20;;
71164;SDS011;58859;55.132;-1.586;2024-03-22T13:32:43;4.77;;;0.63;;
71164;SDS011;58859;55.132;-1.586;2024-03-22T13:35:08;3.27;;;0.60;;
71164;SDS011;58859;55.132;-1.586;2024-03-22T13:37:34;4.77;;;0.60;;
71164;SDS011;58859;55.132;-1.586;2024-03-22T13:39:59;4.18;;;0.40;;
71164;SDS011;58859;55.132;-1.586;2024-03-22T13:42:25;3.47;;;0.87;;
71164;SDS011;58859;55.132;-1.586;2024-03-22T13:44:51;3.97;;;1.00;;
71164;SDS011;58859;55.132;-1.586;2024-03-22T13:47:17;3.80;;;0.75;;
71164;SDS011;58859;55.132;-1.586;2024-03-22T13:49:43;3.80;;;0.67;;
71164;SDS011;58859;55.132;-1.586;2024-03-22T13:52:09;2.58;;;0.82;;
71164;SDS011;58859;55.132;-1.586;2024-03-22T13:54:35;2.47;;;0.85;;
71164;SDS011;58859;55.132;-1.586;2024-03-22T13:57:01;1.63;;;0.50;;
71164;SDS011;58859;55.132;-1.586;2024-03-22T13:59:26;1.48;;;0.70;;
71164;SDS011;58859;55.132;-1.586;2024-03-22T14:01:53;1.60;;;0.50;;
71164;SDS011;58859;55.132;-1.586;2024-03-22T14:04:18;2.10;;;0.70;;
71164;SDS011;58859;55.132;-1.586;2024-03-22T14:06:46;1.80;;;0.70;;
71164;SDS011;58859;55.132;-1.586;2024-03-22T14:09:12;2.47;;;0.40;;
71164;SDS011;58859;55.132;-1.586;2024-03-22T14:11:41;2.58;;;0.45;;
71164;SDS011;58859;55.132;-1.586;2024-03-22T14:14:08;2.85;;;0.47;;
71164;SDS011;58859;55.132;-1.586;2024-03-22T14:16:36;3.65;;;0.68;;
71164;SDS011;58859;55.132;-1.586;2024-03-22T14:19:02;2.83;;;0.63;;
71164;SDS011;58859;55.132;-1.586;2024-03-22T14:21:28;2.83;;;0.60;;